sensor_id;sensor_type;location;lat;lon;timestamp;pressure;altitude;pressure_sealevel;temperature;humidity
30708;BME280;17458;48.958;8.284;2023-01-26T00:02:39;101089.28;;;5.01;63.36
30708;BME280;17458;48.958;8.284;2023-01-26T00:05:23;101077.41;;;5.06;63.64
30708;BME280;17458;48.958;8.284;2023-01-26T00:08:07;101073.19;;;4.76;64.05
30708;BME280;17458;48.958;8.284;2023-01-26T00:10:52;101067.06;;;4.97;63.06
30708;BME280;17458;48.958;8.284;2023-01-26T00:13:37;101069.81;;;4.98;64.01
30708;BME280;17458;48.958;8.284;2023-01-26T00:16:22;101063.44;;;5.17;62.81
30708;BME280;17458;48.958;8.284;2023-01-26T00:19:06;101061.41;;;4.92;63.62
30708;BME280;17458;48.958;8.284;2023-01-26T00:21:57;101062.09;;;4.90;64.76
30708;BME280;17458;48.958;8.284;2023-01-26T00:24:42;101065.03;;;4.62;64.33
30708;BME280;17458;48.958;8.284;2023-01-26T00:27:26;101067.59;;;4.93;64.14
30708;BME280;17458;48.958;8.284;2023-01-26T00:30:11;101056.56;;;4.87;64.13
30708;BME280;17458;48.958;8.284;2023-01-26T00:32:56;101054.81;;;4.97;63.66
30708;BME280;17458;48.958;8.284;2023-01-26T00:35:41;101058.00;;;5.25;63.45
30708;BME280;17458;48.958;8.284;2023-01-26T00:38:28;101048.47;;;5.38;62.95
30708;BME280;17458;48.958;8.284;2023-01-26T00:41:14;101046.63;;;5.37;62.32
30708;BME280;17458;48.958;8.284;2023-01-26T00:44:19;101042.47;;;5.28;62.74
30708;BME280;17458;48.958;8.284;2023-01-26T00:47:08;101041.78;;;4.99;63.06
30708;BME280;17458;48.958;8.284;2023-01-26T00:49:52;101037.91;;;5.16;62.97
30708;BME280;17458;48.958;8.284;2023-01-26T00:52:37;101032.31;;;5.01;63.38
30708;BME280;17458;48.958;8.284;2023-01-26T00:55:27;101041.09;;;5.12;62.86
30708;BME280;17458;48.958;8.284;2023-01-26T00:58:17;101033.09;;;4.58;64.13
30708;BME280;17458;48.958;8.284;2023-01-26T01:01:01;101014.81;;;4.91;63.98
30708;BME280;17458;48.958;8.284;2023-01-26T01:03:46;101015.94;;;5.15;62.94
30708;BME280;17458;48.958;8.284;2023-01-26T01:06:37;101025.50;;;5.25;63.64
30708;BME280;17458;48.958;8.284;2023-01-26T01:09:22;101026.59;;;4.75;64.57
30708;BME280;17458;48.958;8.284;2023-01-26T01:12:07;101027.19;;;4.40;65.69
30708;BME280;17458;48.958;8.284;2023-01-26T01:14:51;101013.63;;;4.56;65.91
30708;BME280;17458;48.958;8.284;2023-01-26T01:17:36;101004.00;;;4.56;65.27
30708;BME280;17458;48.958;8.284;2023-01-26T01:20:20;101003.63;;;4.52;64.97
30708;BME280;17458;48.958;8.284;2023-01-26T01:23:05;101010.59;;;4.51;66.01
30708;BME280;17458;48.958;8.284;2023-01-26T01:25:58;101004.72;;;4.86;64.54
30708;BME280;17458;48.958;8.284;2023-01-26T01:28:44;101010.78;;;4.85;65.07
30708;BME280;17458;48.958;8.284;2023-01-26T01:31:29;101005.56;;;5.07;64.20
30708;BME280;17458;48.958;8.284;2023-01-26T01:34:22;100997.84;;;4.98;64.10
30708;BME280;17458;48.958;8.284;2023-01-26T01:37:07;100992.31;;;4.95;64.06
30708;BME280;17458;48.958;8.284;2023-01-26T01:39:51;100994.94;;;5.05;64.05
30708;BME280;17458;48.958;8.284;2023-01-26T01:42:45;100996.00;;;4.97;64.51
30708;BME280;17458;48.958;8.284;2023-01-26T01:45:44;100995.84;;;5.27;63.70
30708;BME280;17458;48.958;8.284;2023-01-26T01:51:32;100988.75;;;5.26;64.07
30708;BME280;17458;48.958;8.284;2023-01-26T01:54:24;100993.69;;;5.12;64.21
30708;BME280;17458;48.958;8.284;2023-01-26T01:57:16;100984.22;;;5.14;63.90
30708;BME280;17458;48.958;8.284;2023-01-26T02:00:13;100990.47;;;5.26;63.73
30708;BME280;17458;48.958;8.284;2023-01-26T02:03:01;100989.41;;;5.24;63.97
30708;BME280;17458;48.958;8.284;2023-01-26T02:09:29;100995.00;;;5.39;63.44
30708;BME280;17458;48.958;8.284;2023-01-26T02:12:33;101000.00;;;5.35;62.62
30708;BME280;17458;48.958;8.284;2023-01-26T02:15:20;100993.03;;;5.14;63.45
30708;BME280;17458;48.958;8.284;2023-01-26T02:18:04;100989.00;;;5.29;62.61
30708;BME280;17458;48.958;8.284;2023-01-26T02:20:51;100989.72;;;5.39;62.67
30708;BME280;17458;48.958;8.284;2023-01-26T02:23:55;100990.59;;;5.49;62.60
30708;BME280;17458;48.958;8.284;2023-01-26T02:26:43;100987.88;;;5.38;62.42
30708;BME280;17458;48.958;8.284;2023-01-26T02:29:31;100989.41;;;5.24;62.75
30708;BME280;17458;48.958;8.284;2023-01-26T02:32:18;100987.75;;;5.14;62.90
30708;BME280;17458;48.958;8.284;2023-01-26T02:35:02;100990.53;;;5.16;63.42
30708;BME280;17458;48.958;8.284;2023-01-26T02:37:47;100989.81;;;4.96;62.99
30708;BME280;17458;48.958;8.284;2023-01-26T02:40:57;100981.97;;;5.18;63.40
30708;BME280;17458;48.958;8.284;2023-01-26T02:43:43;100987.41;;;5.31;63.46
30708;BME280;17458;48.958;8.284;2023-01-26T02:46:30;100978.53;;;5.41;62.75
30708;BME280;17458;48.958;8.284;2023-01-26T02:49:18;100981.09;;;4.76;64.48
30708;BME280;17458;48.958;8.284;2023-01-26T02:52:24;100975.69;;;4.74;64.74
30708;BME280;17458;48.958;8.284;2023-01-26T02:55:23;100979.91;;;4.20;66.17
30708;BME280;17458;48.958;8.284;2023-01-26T02:58:14;100974.19;;;4.36;65.42
30708;BME280;17458;48.958;8.284;2023-01-26T03:01:07;100969.84;;;4.46;65.02
30708;BME280;17458;48.958;8.284;2023-01-26T03:04:03;100967.91;;;4.34;65.77
30708;BME280;17458;48.958;8.284;2023-01-26T03:06:51;100966.66;;;4.50;65.17
30708;BME280;17458;48.958;8.284;2023-01-26T03:09:35;100973.28;;;4.25;65.47
30708;BME280;17458;48.958;8.284;2023-01-26T03:12:24;100961.56;;;4.42;65.28
30708;BME280;17458;48.958;8.284;2023-01-26T03:15:08;100963.81;;;4.47;64.35
30708;BME280;17458;48.958;8.284;2023-01-26T03:18:16;100960.63;;;4.61;64.33
30708;BME280;17458;48.958;8.284;2023-01-26T03:21:19;100967.19;;;4.56;63.80
30708;BME280;17458;48.958;8.284;2023-01-26T03:24:22;100959.28;;;4.56;63.65
30708;BME280;17458;48.958;8.284;2023-01-26T03:27:25;100968.00;;;4.45;64.66
30708;BME280;17458;48.958;8.284;2023-01-26T03:30:13;100967.88;;;4.44;64.31
30708;BME280;17458;48.958;8.284;2023-01-26T03:32:59;100962.06;;;4.58;64.24
30708;BME280;17458;48.958;8.284;2023-01-26T03:35:45;100962.03;;;4.68;63.76
30708;BME280;17458;48.958;8.284;2023-01-26T03:38:31;100954.78;;;4.66;63.29
30708;BME280;17458;48.958;8.284;2023-01-26T03:41:15;100962.94;;;4.69;63.55
30708;BME280;17458;48.958;8.284;2023-01-26T03:44:18;100953.47;;;4.71;64.14
30708;BME280;17458;48.958;8.284;2023-01-26T03:47:21;100951.31;;;4.87;64.16
30708;BME280;17458;48.958;8.284;2023-01-26T03:50:24;100954.78;;;4.66;64.43
30708;BME280;17458;48.958;8.284;2023-01-26T03:53:27;100949.72;;;4.79;64.00
30708;BME280;17458;48.958;8.284;2023-01-26T03:56:30;100943.53;;;4.56;64.55
30708;BME280;17458;48.958;8.284;2023-01-26T03:59:22;100953.91;;;4.55;64.17
30708;BME280;17458;48.958;8.284;2023-01-26T04:02:21;100940.81;;;4.35;65.42
30708;BME280;17458;48.958;8.284;2023-01-26T04:05:27;100947.94;;;4.68;64.83
30708;BME280;17458;48.958;8.284;2023-01-26T04:08:30;100942.16;;;4.72;65.14
30708;BME280;17458;48.958;8.284;2023-01-26T04:11:17;100937.69;;;4.71;65.06
30708;BME280;17458;48.958;8.284;2023-01-26T04:14:01;100933.25;;;4.49;65.55
30708;BME280;17458;48.958;8.284;2023-01-26T04:17:05;100926.19;;;4.48;66.49
30708;BME280;17458;48.958;8.284;2023-01-26T04:20:08;100930.56;;;4.27;66.60
30708;BME280;17458;48.958;8.284;2023-01-26T04:23:18;100929.25;;;4.22;67.50
30708;BME280;17458;48.958;8.284;2023-01-26T04:26:12;100922.56;;;4.26;67.78
30708;BME280;17458;48.958;8.284;2023-01-26T04:28:56;100917.34;;;4.16;68.22
30708;BME280;17458;48.958;8.284;2023-01-26T04:31:41;100924.69;;;4.10;68.50
30708;BME280;17458;48.958;8.284;2023-01-26T04:34:26;100914.94;;;4.29;68.10
30708;BME280;17458;48.958;8.284;2023-01-26T04:37:11;100925.84;;;4.34;67.73
30708;BME280;17458;48.958;8.284;2023-01-26T04:40:03;100919.47;;;4.52;67.36
30708;BME280;17458;48.958;8.284;2023-01-26T04:42:49;100917.97;;;4.34;67.86
30708;BME280;17458;48.958;8.284;2023-01-26T04:45:34;100916.97;;;4.53;66.96
30708;BME280;17458;48.958;8.284;2023-01-26T04:48:22;100919.66;;;4.33;67.86
30708;BME280;17458;48.958;8.284;2023-01-26T04:51:14;100913.97;;;4.39;68.16
30708;BME280;17458;48.958;8.284;2023-01-26T04:53:59;100911.38;;;4.28;67.71
30708;BME280;17458;48.958;8.284;2023-01-26T04:56:44;100915.19;;;4.22;68.32
30708;BME280;17458;48.958;8.284;2023-01-26T04:59:29;100913.25;;;4.19;68.17
30708;BME280;17458;48.958;8.284;2023-01-26T05:02:16;100912.09;;;4.06;68.97
30708;BME280;17458;48.958;8.284;2023-01-26T05:05:01;100908.97;;;3.89;68.59
30708;BME280;17458;48.958;8.284;2023-01-26T05:07:46;100906.66;;;4.24;68.11
30708;BME280;17458;48.958;8.284;2023-01-26T05:11:00;100910.22;;;4.15;68.51
30708;BME280;17458;48.958;8.284;2023-01-26T05:14:04;100892.44;;;4.33;67.98
30708;BME280;17458;48.958;8.284;2023-01-26T05:17:20;100899.00;;;4.38;68.04
30708;BME280;17458;48.958;8.284;2023-01-26T05:20:14;100905.44;;;3.79;68.74
30708;BME280;17458;48.958;8.284;2023-01-26T05:23:18;100907.22;;;4.20;68.03
30708;BME280;17458;48.958;8.284;2023-01-26T05:26:21;100901.31;;;4.03;68.71
30708;BME280;17458;48.958;8.284;2023-01-26T05:29:19;100903.31;;;3.85;69.30
30708;BME280;17458;48.958;8.284;2023-01-26T05:32:04;100908.44;;;3.73;69.74
30708;BME280;17458;48.958;8.284;2023-01-26T05:34:49;100905.50;;;4.11;68.88
30708;BME280;17458;48.958;8.284;2023-01-26T05:37:39;100905.25;;;4.18;69.51
30708;BME280;17458;48.958;8.284;2023-01-26T05:40:28;100897.28;;;4.38;68.67
30708;BME280;17458;48.958;8.284;2023-01-26T05:43:13;100901.22;;;4.43;68.08
30708;BME280;17458;48.958;8.284;2023-01-26T05:46:23;100899.91;;;4.38;68.14
30708;BME280;17458;48.958;8.284;2023-01-26T05:49:10;100900.34;;;4.22;68.48
30708;BME280;17458;48.958;8.284;2023-01-26T05:51:55;100899.38;;;4.42;68.08
30708;BME280;17458;48.958;8.284;2023-01-26T05:54:42;100897.94;;;4.36;68.38
30708;BME280;17458;48.958;8.284;2023-01-26T05:57:26;100898.09;;;4.27;68.36
30708;BME280;17458;48.958;8.284;2023-01-26T06:00:16;100901.75;;;4.39;69.00
30708;BME280;17458;48.958;8.284;2023-01-26T06:03:09;100899.22;;;4.51;68.14
30708;BME280;17458;48.958;8.284;2023-01-26T06:05:54;100893.72;;;4.38;68.81
30708;BME280;17458;48.958;8.284;2023-01-26T06:08:47;100897.66;;;4.43;69.19
30708;BME280;17458;48.958;8.284;2023-01-26T06:11:50;100891.63;;;4.44;69.14
30708;BME280;17458;48.958;8.284;2023-01-26T06:14:42;100907.06;;;4.09;69.98
30708;BME280;17458;48.958;8.284;2023-01-26T06:17:27;100898.41;;;4.20;69.73
30708;BME280;17458;48.958;8.284;2023-01-26T06:20:17;100906.03;;;4.17;69.67
30708;BME280;17458;48.958;8.284;2023-01-26T06:23:10;100902.91;;;4.01;70.33
30708;BME280;17458;48.958;8.284;2023-01-26T06:25:59;100904.88;;;4.03;70.40
30708;BME280;17458;48.958;8.284;2023-01-26T06:28:43;100907.50;;;3.83;71.06
30708;BME280;17458;48.958;8.284;2023-01-26T06:31:28;100918.00;;;3.83;71.82
30708;BME280;17458;48.958;8.284;2023-01-26T06:34:15;100918.16;;;4.05;71.03
30708;BME280;17458;48.958;8.284;2023-01-26T06:36:59;100920.00;;;4.06;70.64
30708;BME280;17458;48.958;8.284;2023-01-26T06:39:47;100911.00;;;4.24;70.18
30708;BME280;17458;48.958;8.284;2023-01-26T06:42:34;100907.75;;;3.96;70.10
30708;BME280;17458;48.958;8.284;2023-01-26T06:45:19;100914.97;;;4.09;70.43
30708;BME280;17458;48.958;8.284;2023-01-26T06:48:04;100907.91;;;3.67;71.19
30708;BME280;17458;48.958;8.284;2023-01-26T06:50:53;100922.09;;;3.79;71.32
30708;BME280;17458;48.958;8.284;2023-01-26T06:53:42;100916.53;;;4.17;70.63
30708;BME280;17458;48.958;8.284;2023-01-26T06:56:43;100917.22;;;4.04;70.94
30708;BME280;17458;48.958;8.284;2023-01-26T06:59:46;100923.91;;;4.11;70.96
30708;BME280;17458;48.958;8.284;2023-01-26T07:03:02;100931.94;;;3.82;70.96
30708;BME280;17458;48.958;8.284;2023-01-26T07:05:46;100924.19;;;4.04;71.02
30708;BME280;17458;48.958;8.284;2023-01-26T07:08:30;100930.13;;;3.91;71.24
30708;BME280;17458;48.958;8.284;2023-01-26T07:11:15;100926.56;;;3.70;70.90
30708;BME280;17458;48.958;8.284;2023-01-26T07:14:03;100933.91;;;3.84;71.16
30708;BME280;17458;48.958;8.284;2023-01-26T07:16:47;100931.78;;;4.21;69.86
30708;BME280;17458;48.958;8.284;2023-01-26T07:19:31;100931.91;;;4.12;69.41
30708;BME280;17458;48.958;8.284;2023-01-26T07:22:16;100938.00;;;3.91;70.04
30708;BME280;17458;48.958;8.284;2023-01-26T07:25:03;100936.81;;;3.87;70.15
30708;BME280;17458;48.958;8.284;2023-01-26T07:27:47;100936.53;;;3.44;70.94
30708;BME280;17458;48.958;8.284;2023-01-26T07:30:32;100929.94;;;3.29;71.65
30708;BME280;17458;48.958;8.284;2023-01-26T07:33:17;100925.25;;;3.35;71.91
30708;BME280;17458;48.958;8.284;2023-01-26T07:36:01;100929.84;;;3.58;70.99
30708;BME280;17458;48.958;8.284;2023-01-26T07:38:47;100935.50;;;3.82;70.03
30708;BME280;17458;48.958;8.284;2023-01-26T07:41:40;100937.19;;;3.82;70.39
30708;BME280;17458;48.958;8.284;2023-01-26T07:44:46;100934.59;;;3.62;70.81
30708;BME280;17458;48.958;8.284;2023-01-26T07:47:30;100931.66;;;3.99;69.68
30708;BME280;17458;48.958;8.284;2023-01-26T07:50:15;100925.22;;;3.96;69.02
30708;BME280;17458;48.958;8.284;2023-01-26T07:52:59;100929.34;;;3.62;70.43
30708;BME280;17458;48.958;8.284;2023-01-26T07:55:44;100937.47;;;3.85;69.96
30708;BME280;17458;48.958;8.284;2023-01-26T07:58:29;100933.50;;;4.10;69.29
30708;BME280;17458;48.958;8.284;2023-01-26T08:01:14;100936.03;;;3.78;70.75
30708;BME280;17458;48.958;8.284;2023-01-26T08:03:58;100941.94;;;3.76;70.04
30708;BME280;17458;48.958;8.284;2023-01-26T08:06:42;100941.25;;;3.99;69.60
30708;BME280;17458;48.958;8.284;2023-01-26T08:09:27;100949.41;;;3.81;70.24
30708;BME280;17458;48.958;8.284;2023-01-26T08:12:11;100950.31;;;3.41;72.02
30708;BME280;17458;48.958;8.284;2023-01-26T08:14:55;100951.22;;;3.32;71.67
30708;BME280;17458;48.958;8.284;2023-01-26T08:17:40;100952.94;;;3.41;71.44
30708;BME280;17458;48.958;8.284;2023-01-26T08:20:24;100955.22;;;3.77;70.75
30708;BME280;17458;48.958;8.284;2023-01-26T08:23:08;100953.75;;;4.01;70.52
30708;BME280;17458;48.958;8.284;2023-01-26T08:25:59;100957.81;;;3.57;70.91
30708;BME280;17458;48.958;8.284;2023-01-26T08:28:44;100964.66;;;4.06;70.03
30708;BME280;17458;48.958;8.284;2023-01-26T08:31:28;100958.88;;;3.89;70.19
30708;BME280;17458;48.958;8.284;2023-01-26T08:34:13;100962.53;;;4.12;70.15
30708;BME280;17458;48.958;8.284;2023-01-26T08:37:00;100952.84;;;3.90;70.42
30708;BME280;17458;48.958;8.284;2023-01-26T08:39:45;100955.44;;;4.21;69.68
30708;BME280;17458;48.958;8.284;2023-01-26T08:42:29;100956.75;;;3.96;69.49
30708;BME280;17458;48.958;8.284;2023-01-26T08:45:14;100957.81;;;3.98;69.64
30708;BME280;17458;48.958;8.284;2023-01-26T08:47:58;100951.06;;;4.21;69.17
30708;BME280;17458;48.958;8.284;2023-01-26T08:50:43;100955.81;;;4.25;68.65
30708;BME280;17458;48.958;8.284;2023-01-26T08:53:34;100953.28;;;4.37;68.71
30708;BME280;17458;48.958;8.284;2023-01-26T08:56:18;100956.47;;;4.23;67.99
30708;BME280;17458;48.958;8.284;2023-01-26T08:59:08;100954.69;;;3.91;68.91
30708;BME280;17458;48.958;8.284;2023-01-26T09:01:52;100953.97;;;4.24;68.02
30708;BME280;17458;48.958;8.284;2023-01-26T09:04:40;100952.56;;;4.18;67.76
30708;BME280;17458;48.958;8.284;2023-01-26T09:07:24;100960.03;;;4.23;67.82
30708;BME280;17458;48.958;8.284;2023-01-26T09:10:09;100958.47;;;4.15;67.46
30708;BME280;17458;48.958;8.284;2023-01-26T09:12:53;100962.81;;;3.95;66.81
30708;BME280;17458;48.958;8.284;2023-01-26T09:15:38;100963.97;;;4.08;67.60
30708;BME280;17458;48.958;8.284;2023-01-26T09:18:22;100961.31;;;4.49;66.84
30708;BME280;17458;48.958;8.284;2023-01-26T09:21:08;100969.25;;;3.88;66.74
30708;BME280;17458;48.958;8.284;2023-01-26T09:23:54;100960.53;;;4.30;66.33
30708;BME280;17458;48.958;8.284;2023-01-26T09:26:39;100968.97;;;4.15;65.70
30708;BME280;17458;48.958;8.284;2023-01-26T09:29:23;100964.50;;;4.35;65.26
30708;BME280;17458;48.958;8.284;2023-01-26T09:32:07;100964.94;;;3.78;66.53
30708;BME280;17458;48.958;8.284;2023-01-26T09:34:52;100962.41;;;4.10;65.24
30708;BME280;17458;48.958;8.284;2023-01-26T09:37:41;100961.63;;;4.01;65.80
30708;BME280;17458;48.958;8.284;2023-01-26T09:43:55;100962.28;;;4.09;64.79
30708;BME280;17458;48.958;8.284;2023-01-26T09:47:03;100959.88;;;4.42;64.04
30708;BME280;17458;48.958;8.284;2023-01-26T09:50:00;100967.53;;;3.68;65.02
30708;BME280;17458;48.958;8.284;2023-01-26T09:52:53;100972.00;;;3.69;65.64
30708;BME280;17458;48.958;8.284;2023-01-26T09:55:40;100967.81;;;3.61;65.72
30708;BME280;17458;48.958;8.284;2023-01-26T09:58:48;100971.50;;;3.63;65.93
30708;BME280;17458;48.958;8.284;2023-01-26T10:01:43;100963.59;;;3.83;65.39
30708;BME280;17458;48.958;8.284;2023-01-26T10:07:17;100957.41;;;3.83;65.23
30708;BME280;17458;48.958;8.284;2023-01-26T10:10:02;100958.56;;;4.27;64.30
30708;BME280;17458;48.958;8.284;2023-01-26T10:12:49;100958.72;;;4.18;63.99
30708;BME280;17458;48.958;8.284;2023-01-26T10:15:37;100966.75;;;4.10;64.27
30708;BME280;17458;48.958;8.284;2023-01-26T10:18:30;100964.94;;;3.88;64.70
30708;BME280;17458;48.958;8.284;2023-01-26T10:21:17;100968.34;;;3.87;64.89
30708;BME280;17458;48.958;8.284;2023-01-26T10:24:04;100971.50;;;4.04;64.03
30708;BME280;17458;48.958;8.284;2023-01-26T10:26:51;100966.88;;;3.81;64.47
30708;BME280;17458;48.958;8.284;2023-01-26T10:29:39;100956.50;;;3.62;64.79
30708;BME280;17458;48.958;8.284;2023-01-26T10:32:23;100959.91;;;3.81;64.17
30708;BME280;17458;48.958;8.284;2023-01-26T10:35:20;100956.25;;;3.69;64.66
30708;BME280;17458;48.958;8.284;2023-01-26T10:38:25;100942.44;;;3.82;63.91
30708;BME280;17458;48.958;8.284;2023-01-26T10:44:01;100932.59;;;4.00;62.78
30708;BME280;17458;48.958;8.284;2023-01-26T10:47:10;100938.63;;;3.68;63.90
30708;BME280;17458;48.958;8.284;2023-01-26T10:50:24;100938.41;;;3.75;63.79
30708;BME280;17458;48.958;8.284;2023-01-26T10:53:22;100938.34;;;4.16;63.69
30708;BME280;17458;48.958;8.284;2023-01-26T10:56:14;100937.16;;;4.22;63.06
30708;BME280;17458;48.958;8.284;2023-01-26T10:59:00;100935.75;;;3.85;63.68
30708;BME280;17458;48.958;8.284;2023-01-26T11:02:01;100923.41;;;3.74;64.41
30708;BME280;17458;48.958;8.284;2023-01-26T11:07:54;100931.53;;;3.67;64.68
30708;BME280;17458;48.958;8.284;2023-01-26T11:10:51;100923.41;;;3.74;65.10
30708;BME280;17458;48.958;8.284;2023-01-26T11:13:42;100927.63;;;3.72;64.92
30708;BME280;17458;48.958;8.284;2023-01-26T11:16:26;100926.44;;;3.69;65.28
30708;BME280;17458;48.958;8.284;2023-01-26T11:19:15;100918.94;;;4.04;64.86
30708;BME280;17458;48.958;8.284;2023-01-26T11:22:11;100912.69;;;4.23;64.82
30708;BME280;17458;48.958;8.284;2023-01-26T11:25:23;100903.06;;;4.44;63.29
30708;BME280;17458;48.958;8.284;2023-01-26T11:34:28;100910.22;;;4.15;64.35
30708;BME280;17458;48.958;8.284;2023-01-26T11:43:19;100909.75;;;3.58;66.23
30708;BME280;17458;48.958;8.284;2023-01-26T11:46:24;100905.28;;;3.57;67.61
30708;BME280;17458;48.958;8.284;2023-01-26T11:52:14;100891.22;;;3.67;68.30
30708;BME280;17458;48.958;8.284;2023-01-26T12:01:24;100883.47;;;3.88;67.41
30708;BME280;17458;48.958;8.284;2023-01-26T12:04:21;100887.44;;;3.63;68.46
30708;BME280;17458;48.958;8.284;2023-01-26T12:07:13;100881.22;;;3.93;68.19
30708;BME280;17458;48.958;8.284;2023-01-26T12:10:00;100881.91;;;3.60;68.93
30708;BME280;17458;48.958;8.284;2023-01-26T12:12:49;100872.19;;;3.89;68.25
30708;BME280;17458;48.958;8.284;2023-01-26T12:15:38;100870.88;;;3.74;68.19
30708;BME280;17458;48.958;8.284;2023-01-26T12:18:45;100870.47;;;3.80;68.14
30708;BME280;17458;48.958;8.284;2023-01-26T12:21:36;100866.81;;;3.37;68.03
30708;BME280;17458;48.958;8.284;2023-01-26T12:24:42;100866.16;;;3.40;68.12
30708;BME280;17458;48.958;8.284;2023-01-26T12:27:39;100858.41;;;3.62;68.19
30708;BME280;17458;48.958;8.284;2023-01-26T12:30:58;100854.59;;;3.68;67.78
30708;BME280;17458;48.958;8.284;2023-01-26T12:33:46;100851.72;;;3.55;67.60
30708;BME280;17458;48.958;8.284;2023-01-26T12:39:47;100842.84;;;3.95;66.74
30708;BME280;17458;48.958;8.284;2023-01-26T12:43:02;100837.44;;;4.14;65.36
30708;BME280;17458;48.958;8.284;2023-01-26T12:45:53;100840.34;;;3.97;65.71
30708;BME280;17458;48.958;8.284;2023-01-26T12:48:51;100833.03;;;4.35;65.20
30708;BME280;17458;48.958;8.284;2023-01-26T12:51:44;100836.91;;;4.18;65.33
30708;BME280;17458;48.958;8.284;2023-01-26T12:57:21;100831.50;;;3.64;65.73
30708;BME280;17458;48.958;8.284;2023-01-26T13:00:23;100844.22;;;3.39;65.81
30708;BME280;17458;48.958;8.284;2023-01-26T13:03:20;100837.13;;;3.69;65.73
30708;BME280;17458;48.958;8.284;2023-01-26T13:09:24;100834.84;;;4.04;65.37
30708;BME280;17458;48.958;8.284;2023-01-26T13:15:31;100831.97;;;3.80;63.64
30708;BME280;17458;48.958;8.284;2023-01-26T13:18:16;100818.06;;;3.91;63.83
30708;BME280;17458;48.958;8.284;2023-01-26T13:21:01;100824.91;;;4.21;63.05
30708;BME280;17458;48.958;8.284;2023-01-26T13:23:44;100825.81;;;3.70;61.23
30708;BME280;17458;48.958;8.284;2023-01-26T13:29:27;100824.09;;;4.22;59.98
30708;BME280;17458;48.958;8.284;2023-01-26T13:34:59;100825.16;;;3.82;61.15
30708;BME280;17458;48.958;8.284;2023-01-26T13:38:10;100832.53;;;3.76;60.85
30708;BME280;17458;48.958;8.284;2023-01-26T13:40:59;100838.03;;;3.69;60.78
30708;BME280;17458;48.958;8.284;2023-01-26T13:44:17;100832.25;;;3.83;60.98
30708;BME280;17458;48.958;8.284;2023-01-26T13:47:17;100831.28;;;3.93;60.95
30708;BME280;17458;48.958;8.284;2023-01-26T13:53:32;100825.81;;;3.90;61.37
30708;BME280;17458;48.958;8.284;2023-01-26T13:59:17;100835.28;;;3.78;61.13
30708;BME280;17458;48.958;8.284;2023-01-26T14:02:10;100837.03;;;3.47;61.59
30708;BME280;17458;48.958;8.284;2023-01-26T14:05:04;100838.72;;;3.46;61.92
30708;BME280;17458;48.958;8.284;2023-01-26T14:07:49;100844.34;;;3.51;60.52
30708;BME280;17458;48.958;8.284;2023-01-26T14:10:33;100844.63;;;3.24;61.11
30708;BME280;17458;48.958;8.284;2023-01-26T14:13:31;100850.16;;;3.47;61.22
30708;BME280;17458;48.958;8.284;2023-01-26T14:16:22;100850.38;;;3.70;60.53
30708;BME280;17458;48.958;8.284;2023-01-26T14:21:57;100851.47;;;3.42;60.36
30708;BME280;17458;48.958;8.284;2023-01-26T14:24:49;100853.16;;;3.41;59.74
30708;BME280;17458;48.958;8.284;2023-01-26T14:27:39;100850.00;;;3.66;59.74
30708;BME280;17458;48.958;8.284;2023-01-26T14:30:30;100856.84;;;3.33;60.10
30708;BME280;17458;48.958;8.284;2023-01-26T14:33:16;100859.47;;;3.64;59.73
30708;BME280;17458;48.958;8.284;2023-01-26T14:36:02;100861.97;;;3.32;60.10
30708;BME280;17458;48.958;8.284;2023-01-26T14:38:50;100856.81;;;3.13;60.66
30708;BME280;17458;48.958;8.284;2023-01-26T14:41:34;100860.63;;;3.06;60.47
30708;BME280;17458;48.958;8.284;2023-01-26T14:44:22;100872.06;;;3.17;60.72
30708;BME280;17458;48.958;8.284;2023-01-26T14:47:17;100866.66;;;3.26;60.38
30708;BME280;17458;48.958;8.284;2023-01-26T14:50:14;100869.66;;;2.90;61.38
30708;BME280;17458;48.958;8.284;2023-01-26T14:53:26;100860.25;;;3.32;60.21
30708;BME280;17458;48.958;8.284;2023-01-26T14:56:33;100863.66;;;3.21;60.54
30708;BME280;17458;48.958;8.284;2023-01-26T14:59:22;100869.59;;;3.49;60.05
30708;BME280;17458;48.958;8.284;2023-01-26T15:02:13;100869.81;;;3.72;59.40
30708;BME280;17458;48.958;8.284;2023-01-26T15:05:09;100874.41;;;3.24;60.46
30708;BME280;17458;48.958;8.284;2023-01-26T15:11:02;100862.97;;;3.03;61.14
30708;BME280;17458;48.958;8.284;2023-01-26T15:14:37;100876.81;;;2.82;62.10
30708;BME280;17458;48.958;8.284;2023-01-26T15:18:00;100875.03;;;2.91;61.54
30708;BME280;17458;48.958;8.284;2023-01-26T15:20:53;100890.16;;;3.24;61.17
30708;BME280;17458;48.958;8.284;2023-01-26T15:23:44;100888.56;;;2.67;62.37
30708;BME280;17458;48.958;8.284;2023-01-26T15:26:35;100884.63;;;3.01;61.63
30708;BME280;17458;48.958;8.284;2023-01-26T15:29:57;100896.59;;;3.38;60.78
30708;BME280;17458;48.958;8.284;2023-01-26T15:32:44;100891.47;;;3.19;60.70
30708;BME280;17458;48.958;8.284;2023-01-26T15:35:31;100887.88;;;2.88;60.86
30708;BME280;17458;48.958;8.284;2023-01-26T15:38:16;100889.44;;;2.86;61.74
30708;BME280;17458;48.958;8.284;2023-01-26T15:41:00;100882.00;;;3.01;60.59
30708;BME280;17458;48.958;8.284;2023-01-26T15:43:47;100891.81;;;2.93;60.46
30708;BME280;17458;48.958;8.284;2023-01-26T15:46:31;100886.88;;;3.06;60.34
30708;BME280;17458;48.958;8.284;2023-01-26T15:49:16;100891.03;;;2.94;60.94
30708;BME280;17458;48.958;8.284;2023-01-26T15:52:08;100889.78;;;3.19;60.19
30708;BME280;17458;48.958;8.284;2023-01-26T15:54:59;100880.97;;;3.19;60.68
30708;BME280;17458;48.958;8.284;2023-01-26T15:57:47;100879.81;;;3.56;59.04
30708;BME280;17458;48.958;8.284;2023-01-26T16:00:31;100884.53;;;3.19;59.99
30708;BME280;17458;48.958;8.284;2023-01-26T16:03:18;100887.66;;;3.15;60.21
30708;BME280;17458;48.958;8.284;2023-01-26T16:06:03;100886.72;;;2.95;60.38
30708;BME280;17458;48.958;8.284;2023-01-26T16:08:51;100889.78;;;3.30;59.90
30708;BME280;17458;48.958;8.284;2023-01-26T16:11:42;100891.50;;;3.49;59.42
30708;BME280;17458;48.958;8.284;2023-01-26T16:14:29;100883.19;;;3.14;60.44
30708;BME280;17458;48.958;8.284;2023-01-26T16:17:17;100890.50;;;2.98;60.56